createdAt,value
2022-08-18T00:00:33.896Z,61.10
2022-08-18T00:01:33.964Z,62.20
2022-08-18T00:02:33.954Z,62.10
2022-08-18T00:03:56.219Z,62.70
2022-08-18T00:04:35.924Z,64.30
2022-08-18T00:05:33.825Z,63.80
2022-08-18T00:06:33.810Z,63.70
2022-08-18T00:07:33.787Z,62.90
2022-08-18T00:08:37.334Z,62.80
2022-08-18T00:09:33.758Z,63.40
2022-08-18T00:10:33.742Z,61.60
2022-08-18T00:11:41.712Z,62.20
2022-08-18T00:12:33.718Z,62.50
2022-08-18T00:13:33.694Z,63.50
2022-08-18T00:14:33.678Z,63.40
2022-08-18T00:15:48.773Z,62.00
2022-08-18T00:16:33.652Z,63.20
2022-08-18T00:17:33.632Z,63.70
2022-08-18T00:18:33.620Z,64.20
2022-08-18T00:19:46.866Z,65.00
2022-08-18T00:20:33.586Z,62.00
2022-08-18T00:21:33.571Z,63.10
2022-08-18T00:22:33.557Z,63.70
2022-08-18T00:23:33.537Z,65.60
2022-08-18T00:24:33.524Z,62.80
2022-08-18T00:25:33.512Z,63.40
2022-08-18T00:26:36.808Z,64.00
2022-08-18T00:27:33.478Z,64.70
2022-08-18T00:28:33.466Z,63.40
2022-08-18T00:29:33.450Z,62.20
2022-08-18T00:30:33.432Z,60.70
2022-08-18T00:31:33.413Z,61.40
2022-08-18T00:32:33.402Z,62.40
2022-08-18T00:33:33.382Z,60.60
2022-08-18T00:34:33.369Z,61.80
2022-08-18T00:35:33.352Z,61.70
2022-08-18T00:36:33.340Z,60.70
2022-08-18T00:37:33.320Z,59.30
2022-08-18T00:38:33.306Z,61.80
2022-08-18T00:39:34.216Z,61.00
2022-08-18T00:40:37.686Z,60.50
2022-08-18T00:41:33.259Z,62.30
2022-08-18T00:42:33.247Z,61.90
2022-08-18T00:43:33.228Z,62.40
2022-08-18T00:44:33.219Z,59.80
2022-08-18T00:45:33.198Z,60.40
2022-08-18T00:46:33.184Z,59.20
2022-08-18T00:47:42.633Z,59.30
2022-08-18T00:48:33.150Z,58.80
2022-08-18T00:49:33.133Z,58.80
2022-08-18T00:50:33.121Z,57.60
2022-08-18T00:51:33.107Z,57.90
2022-08-18T00:52:33.088Z,59.90
2022-08-18T00:53:33.071Z,61.10
2022-08-18T00:54:33.056Z,58.00
2022-08-18T00:55:33.040Z,60.60
2022-08-18T00:56:33.028Z,60.60
2022-08-18T00:57:33.009Z,60.10
2022-08-18T00:58:35.628Z,58.60
2022-08-18T00:59:32.979Z,58.70
2022-08-18T01:00:33.021Z,57.00
2022-08-18T01:01:32.946Z,60.00
2022-08-18T01:02:32.933Z,59.50
2022-08-18T01:03:32.918Z,59.70
2022-08-18T01:04:32.899Z,58.00
2022-08-18T01:05:32.885Z,58.90
2022-08-18T01:06:32.869Z,60.70
2022-08-18T01:07:32.852Z,57.60
2022-08-18T01:08:32.839Z,60.40
2022-08-18T01:09:32.820Z,58.30
2022-08-18T01:10:32.808Z,59.20
2022-08-18T01:11:32.789Z,57.70
2022-08-18T01:12:45.592Z,58.00
2022-08-18T01:13:32.757Z,57.10
2022-08-18T01:14:32.754Z,56.70
2022-08-18T01:15:32.724Z,57.70
2022-08-18T01:16:32.711Z,61.50
2022-08-18T01:17:32.694Z,58.10
2022-08-18T01:18:32.680Z,59.10
2022-08-18T01:19:32.662Z,59.30
2022-08-18T01:20:32.650Z,60.70
2022-08-18T01:21:32.650Z,59.70
2022-08-18T01:22:32.617Z,58.50
2022-08-18T01:23:32.611Z,60.40
2022-08-18T01:24:32.594Z,58.90
2022-08-18T01:25:32.575Z,59.00
2022-08-18T01:26:32.559Z,57.70
2022-08-18T01:27:32.541Z,58.70
2022-08-18T01:28:32.526Z,59.10
2022-08-18T01:29:32.506Z,58.10
2022-08-18T01:30:32.491Z,59.70
2022-08-18T01:31:32.477Z,59.00
2022-08-18T01:32:32.463Z,60.80
2022-08-18T01:33:32.467Z,58.60
2022-08-18T01:34:32.428Z,58.50
2022-08-18T01:35:37.117Z,57.50
2022-08-18T01:36:32.400Z,58.90
2022-08-18T01:37:32.381Z,58.70
2022-08-18T01:38:32.366Z,61.10
2022-08-18T01:41:21.023Z,60.50
2022-08-18T01:41:23.344Z,60.00
2022-08-18T01:41:32.385Z,59.30
2022-08-18T01:42:32.320Z,59.50
2022-08-18T01:43:32.286Z,60.40
2022-08-18T01:44:32.272Z,60.70
2022-08-18T01:45:32.256Z,60.30
2022-08-18T01:46:32.241Z,61.70
2022-08-18T01:47:33.005Z,59.80
2022-08-18T01:48:32.211Z,60.50
2022-08-18T01:49:32.192Z,59.80
2022-08-18T01:50:32.179Z,59.80
2022-08-18T01:51:39.921Z,59.80
2022-08-18T01:52:32.149Z,59.40
2022-08-18T01:53:32.128Z,57.40
2022-08-18T01:54:32.115Z,59.90
2022-08-18T01:55:32.099Z,58.20
2022-08-18T01:56:32.086Z,57.50
2022-08-18T01:57:32.065Z,57.40
2022-08-18T01:58:32.051Z,56.60
2022-08-18T01:59:32.035Z,56.00
2022-08-18T02:00:32.022Z,55.40
2022-08-18T02:01:36.471Z,54.00
2022-08-18T02:02:31.989Z,57.00
2022-08-18T02:03:31.974Z,54.90
2022-08-18T02:04:35.522Z,55.40
2022-08-18T02:05:31.941Z,53.60
2022-08-18T02:06:33.508Z,55.60
2022-08-18T02:07:36.477Z,55.10
2022-08-18T02:08:31.895Z,54.80
2022-08-18T02:09:31.878Z,55.30
2022-08-18T02:10:31.863Z,53.10
2022-08-18T02:11:31.842Z,54.30
2022-08-18T02:12:31.837Z,54.40
2022-08-18T02:13:31.817Z,54.80
2022-08-18T02:14:31.798Z,53.10
2022-08-18T02:15:31.781Z,54.00
2022-08-18T02:16:31.771Z,53.70
2022-08-18T02:17:31.754Z,52.80
2022-08-18T02:18:47.371Z,52.40
2022-08-18T02:19:31.719Z,53.80
2022-08-18T02:20:31.706Z,53.40
2022-08-18T02:21:31.692Z,54.20
2022-08-18T02:22:31.673Z,53.60
2022-08-18T02:23:31.660Z,52.00
2022-08-18T02:24:31.643Z,52.90
2022-08-18T02:25:31.626Z,52.20
2022-08-18T02:26:31.610Z,52.60
2022-08-18T02:27:31.594Z,52.80
2022-08-18T02:28:31.580Z,51.20
2022-08-18T02:29:31.583Z,53.50
2022-08-18T02:30:31.555Z,51.60
2022-08-18T02:31:31.534Z,54.10
2022-08-18T02:32:31.517Z,53.60
2022-08-18T02:33:31.501Z,54.70
2022-08-18T02:34:31.488Z,54.90
2022-08-18T02:35:31.474Z,53.00
2022-08-18T02:36:31.456Z,53.00
2022-08-18T02:37:31.438Z,52.50
2022-08-18T02:38:33.460Z,52.80
2022-08-18T02:39:31.481Z,52.10
2022-08-18T02:40:31.391Z,53.40
2022-08-18T02:41:31.407Z,52.60
2022-08-18T02:42:31.361Z,51.70
2022-08-18T02:43:36.233Z,51.40
2022-08-18T02:44:31.328Z,51.00
2022-08-18T02:45:31.313Z,51.60
2022-08-18T02:46:31.578Z,51.70
2022-08-18T02:47:33.673Z,50.80
2022-08-18T02:48:31.267Z,51.50
2022-08-18T02:49:31.247Z,51.20
2022-08-18T02:50:31.234Z,51.80
2022-08-18T02:51:31.216Z,50.70
2022-08-18T02:52:31.204Z,51.40
2022-08-18T02:53:31.186Z,51.80
2022-08-18T02:54:31.178Z,51.60
2022-08-18T02:55:31.153Z,48.80
2022-08-18T02:56:32.741Z,50.50
2022-08-18T02:57:31.127Z,49.80
2022-08-18T02:58:33.657Z,49.50
2022-08-18T02:59:31.898Z,49.90
2022-08-18T03:00:31.077Z,49.20
2022-08-18T03:01:31.118Z,48.90
2022-08-18T03:02:31.046Z,48.30
2022-08-18T03:03:31.030Z,46.70
2022-08-18T03:04:31.013Z,47.00
2022-08-18T03:05:30.997Z,46.60
2022-08-18T03:06:30.982Z,44.60
2022-08-18T03:07:30.966Z,45.70
2022-08-18T03:08:30.950Z,45.50
2022-08-18T03:09:30.934Z,46.40
2022-08-18T03:10:34.045Z,44.80
2022-08-18T03:11:30.902Z,45.60
2022-08-18T03:12:30.893Z,44.40
2022-08-18T03:13:30.872Z,44.70
2022-08-18T03:14:30.857Z,44.10
2022-08-18T03:15:30.843Z,44.10
2022-08-18T03:16:30.825Z,43.40
2022-08-18T03:17:30.809Z,43.00
2022-08-18T03:18:30.835Z,42.40
2022-08-18T03:19:30.777Z,42.20
2022-08-18T03:20:31.567Z,43.00
2022-08-18T03:21:30.753Z,43.00
2022-08-18T03:22:31.075Z,44.00
2022-08-18T03:23:30.714Z,43.60
2022-08-18T03:24:30.704Z,43.40
2022-08-18T03:25:30.682Z,41.40
2022-08-18T03:26:30.673Z,42.80
2022-08-18T03:27:30.650Z,43.60
2022-08-18T03:28:30.641Z,42.30
2022-08-18T03:29:32.776Z,44.10
2022-08-18T03:30:30.602Z,46.00
2022-08-18T03:31:30.601Z,44.40
2022-08-18T03:32:30.576Z,46.70
2022-08-18T03:33:30.557Z,46.70
2022-08-18T03:34:30.542Z,48.00
2022-08-18T03:35:30.522Z,50.00
2022-08-18T03:36:30.509Z,48.50
2022-08-18T03:37:30.493Z,49.20
2022-08-18T03:38:30.477Z,49.80
2022-08-18T03:39:30.543Z,49.50
2022-08-18T03:40:30.446Z,49.40
2022-08-18T03:41:44.081Z,51.90
2022-08-18T03:42:30.414Z,50.30
2022-08-18T03:43:50.708Z,50.30
2022-08-18T03:44:30.424Z,49.90
2022-08-18T03:45:30.366Z,50.50
2022-08-18T03:46:30.350Z,52.20
2022-08-18T03:47:30.334Z,52.50
2022-08-18T03:48:30.319Z,50.60
2022-08-18T03:49:30.301Z,52.30
2022-08-18T03:50:30.287Z,52.30
2022-08-18T03:51:30.270Z,54.00
2022-08-18T03:52:30.257Z,53.60
2022-08-18T03:53:30.240Z,52.20
2022-08-18T03:54:30.225Z,52.10
2022-08-18T03:55:30.205Z,51.70
2022-08-18T03:56:30.193Z,53.30
2022-08-18T03:57:30.178Z,52.30
2022-08-18T03:58:30.164Z,53.70
2022-08-18T03:59:30.145Z,53.70
2022-08-18T04:00:30.148Z,54.30
2022-08-18T04:01:30.240Z,55.00
2022-08-18T04:02:30.100Z,53.20
2022-08-18T04:03:30.083Z,54.30
2022-08-18T04:04:30.065Z,53.60
2022-08-18T04:05:30.051Z,54.70
2022-08-18T04:06:30.637Z,56.20
2022-08-18T04:07:30.019Z,54.90
2022-08-18T04:08:30.002Z,57.00
2022-08-18T04:09:29.994Z,56.90
2022-08-18T04:10:29.970Z,57.60
2022-08-18T04:11:29.958Z,55.70
2022-08-18T04:12:29.939Z,57.10
2022-08-18T04:13:29.924Z,58.00
2022-08-18T04:14:29.911Z,58.50
2022-08-18T04:15:29.896Z,58.00
2022-08-18T04:16:29.875Z,58.50
2022-08-18T04:17:29.863Z,57.60
2022-08-18T04:18:29.842Z,61.20
2022-08-18T04:19:29.831Z,60.60
2022-08-18T04:20:29.815Z,60.60
2022-08-18T04:21:29.802Z,60.90
2022-08-18T04:22:29.781Z,60.40
2022-08-18T04:23:29.768Z,61.60
2022-08-18T04:24:31.163Z,61.00
2022-08-18T04:25:32.848Z,58.70
2022-08-18T04:26:29.715Z,61.40
2022-08-18T04:27:29.713Z,60.80
2022-08-18T04:28:29.687Z,62.00
2022-08-18T04:29:29.674Z,62.30
2022-08-18T04:30:29.654Z,62.80
2022-08-18T04:31:29.652Z,61.80
2022-08-18T04:32:29.989Z,63.10
2022-08-18T04:33:29.611Z,63.30
2022-08-18T04:34:29.592Z,61.50
2022-08-18T04:35:29.574Z,63.50
2022-08-18T04:36:29.558Z,61.80
2022-08-18T04:37:29.543Z,64.00
2022-08-18T04:38:29.527Z,63.10
2022-08-18T04:39:29.596Z,63.20
2022-08-18T04:40:29.611Z,64.10
2022-08-18T04:41:29.518Z,62.70
2022-08-18T04:42:29.463Z,65.00
2022-08-18T04:43:29.450Z,63.00
2022-08-18T04:44:29.439Z,62.80
2022-08-18T04:45:29.616Z,63.80
2022-08-18T04:46:29.398Z,63.30
2022-08-18T04:47:29.385Z,64.10
2022-08-18T04:48:29.370Z,64.30
2022-08-18T04:49:29.354Z,65.10
2022-08-18T04:50:29.334Z,64.10
2022-08-18T04:52:37.041Z,65.60
2022-08-18T04:52:40.629Z,65.70
2022-08-18T04:53:29.292Z,64.90
2022-08-18T04:54:29.271Z,66.50
2022-08-18T04:55:29.262Z,64.90
2022-08-18T04:56:29.240Z,66.80
2022-08-18T04:57:29.234Z,67.70
2022-08-18T04:58:29.212Z,65.60
2022-08-18T04:59:29.194Z,67.00
2022-08-18T05:00:29.179Z,66.60
2022-08-18T05:01:29.191Z,66.10
2022-08-18T05:02:29.147Z,68.80
2022-08-18T05:03:29.130Z,66.40
2022-08-18T05:04:29.115Z,67.90
2022-08-18T05:05:29.097Z,66.40
2022-08-18T05:06:29.080Z,65.40
2022-08-18T05:07:29.072Z,63.90
2022-08-18T05:08:29.048Z,64.20
2022-08-18T05:09:29.034Z,65.50
2022-08-18T05:10:29.018Z,63.10
2022-08-18T05:11:29.028Z,64.00
2022-08-18T05:12:29.006Z,63.50
2022-08-18T05:13:29.304Z,63.70
2022-08-18T05:14:28.953Z,63.00
2022-08-18T05:15:38.323Z,63.90
2022-08-18T05:16:28.923Z,62.70
2022-08-18T05:18:28.893Z,62.00
2022-08-18T05:19:28.872Z,62.20
2022-08-18T05:20:29.062Z,62.10
2022-08-18T05:21:28.841Z,60.70
2022-08-18T05:22:30.887Z,61.90
2022-08-18T05:23:29.036Z,59.90
2022-08-18T05:24:34.054Z,61.90
2022-08-18T05:25:28.778Z,63.30
2022-08-18T05:26:28.763Z,62.90
2022-08-18T05:27:28.746Z,62.00
2022-08-18T05:28:28.733Z,60.40
2022-08-18T05:29:28.914Z,61.60
2022-08-18T05:31:28.716Z,62.00
2022-08-18T05:32:38.253Z,59.70
2022-08-18T05:34:28.637Z,59.30
2022-08-18T05:35:28.644Z,62.10
2022-08-18T05:36:28.638Z,59.70
2022-08-18T05:37:29.021Z,58.90
2022-08-18T05:38:28.600Z,59.80
2022-08-18T05:39:28.626Z,59.10
2022-08-18T05:40:28.874Z,59.80
2022-08-18T05:41:28.753Z,55.10
2022-08-18T05:43:28.724Z,51.80
2022-08-18T05:44:28.706Z,52.50
2022-08-18T05:45:28.496Z,52.10
2022-08-18T05:46:28.470Z,47.70
2022-08-18T05:47:28.658Z,44.60
2022-08-18T05:49:28.625Z,46.00
2022-08-18T05:50:28.405Z,45.60
2022-08-18T05:51:28.395Z,44.70
2022-08-18T05:52:28.374Z,41.70
2022-08-18T05:53:28.566Z,43.80
2022-08-18T05:54:28.352Z,42.10
2022-08-18T05:55:28.330Z,41.90
2022-08-18T05:56:28.716Z,42.20
2022-08-18T05:59:28.673Z,40.90
2022-08-18T06:00:28.686Z,38.80
2022-08-18T06:02:28.218Z,38.20
2022-08-18T06:05:28.375Z,37.50
2022-08-18T06:06:28.158Z,38.90
2022-08-18T06:07:28.543Z,37.30
2022-08-18T06:08:28.328Z,37.20
2022-08-18T06:09:28.380Z,38.40
2022-08-18T06:10:28.601Z,37.50
2022-08-18T06:12:28.059Z,37.40
2022-08-18T06:13:28.256Z,37.40
2022-08-18T06:14:28.026Z,37.60
2022-08-18T06:15:28.210Z,36.10
2022-08-18T06:16:27.967Z,36.30
2022-08-18T06:17:27.955Z,33.90
2022-08-18T06:18:27.936Z,34.80
2022-08-18T06:19:27.948Z,33.50
2022-08-18T06:20:27.977Z,33.00
2022-08-18T06:21:27.921Z,34.20
2022-08-18T06:22:30.553Z,32.60
2022-08-18T06:23:27.860Z,34.00
2022-08-18T06:24:27.844Z,32.50
2022-08-18T06:25:28.064Z,31.20
2022-08-18T06:26:28.037Z,32.50
2022-08-18T06:27:27.824Z,32.80
2022-08-18T06:28:27.801Z,31.00
2022-08-18T06:29:27.966Z,32.10
2022-08-18T06:30:27.768Z,31.80
2022-08-18T06:31:29.568Z,31.70
2022-08-18T06:32:28.451Z,32.60
2022-08-18T06:33:28.135Z,31.40
2022-08-18T06:35:27.690Z,30.30
2022-08-18T06:36:27.881Z,30.50
2022-08-18T06:37:27.660Z,30.10
2022-08-18T06:38:27.619Z,29.90
2022-08-18T06:39:27.695Z,29.40
2022-08-18T06:40:29.026Z,28.70
2022-08-18T06:41:40.393Z,29.30
2022-08-18T06:42:27.787Z,27.70
2022-08-18T06:43:27.870Z,27.80
2022-08-18T06:44:27.764Z,25.90
2022-08-18T06:45:34.021Z,27.30
2022-08-18T06:46:27.526Z,26.40
2022-08-18T06:47:27.501Z,27.10
2022-08-18T06:48:27.798Z,24.80
2022-08-18T06:49:28.181Z,26.30
2022-08-18T06:50:27.975Z,26.50
2022-08-18T06:52:27.437Z,25.60
2022-08-18T06:53:28.399Z,26.10
2022-08-18T06:54:28.474Z,26.00
2022-08-18T06:55:27.576Z,25.30
2022-08-18T06:56:27.560Z,26.40
2022-08-18T06:57:27.320Z,25.60
2022-08-18T06:58:27.530Z,25.70
2022-08-18T06:59:27.287Z,25.40
2022-08-18T07:00:27.271Z,25.40
2022-08-18T07:01:27.303Z,25.50
2022-08-18T07:02:27.235Z,25.30
2022-08-18T07:03:27.220Z,26.60
2022-08-18T07:04:27.237Z,26.70
2022-08-18T07:05:27.192Z,25.80
2022-08-18T07:06:27.198Z,26.30
2022-08-18T07:07:27.183Z,26.40
2022-08-18T07:08:27.173Z,27.10
2022-08-18T07:09:27.153Z,27.90
2022-08-18T07:10:27.106Z,28.10
2022-08-18T07:11:27.325Z,27.40
2022-08-18T07:12:32.251Z,26.10
2022-08-18T07:13:27.107Z,26.90
2022-08-18T07:14:27.274Z,26.50
2022-08-18T07:15:27.062Z,27.20
2022-08-18T07:16:47.408Z,26.80
2022-08-18T07:17:52.909Z,27.00
2022-08-18T07:18:27.013Z,24.80
2022-08-18T07:19:26.998Z,25.80
2022-08-18T07:20:26.975Z,26.50
2022-08-18T07:21:27.296Z,24.60
2022-08-18T07:22:30.082Z,25.00
2022-08-18T07:23:27.133Z,24.90
2022-08-18T07:24:26.914Z,24.80
2022-08-18T07:26:27.083Z,24.00
2022-08-18T07:27:27.068Z,24.70
2022-08-18T07:28:26.849Z,24.50
2022-08-18T07:29:26.835Z,23.50
2022-08-18T07:30:27.132Z,23.80
2022-08-18T07:31:27.203Z,24.10
2022-08-18T07:33:26.847Z,24.20
2022-08-18T07:34:26.764Z,23.20
2022-08-18T07:35:26.745Z,23.00
2022-08-18T07:36:27.586Z,23.40
2022-08-18T07:37:29.008Z,21.90
2022-08-18T07:38:43.835Z,22.90
2022-08-18T07:39:27.103Z,22.90
2022-08-18T07:40:26.657Z,23.80
2022-08-18T07:41:26.874Z,23.50
2022-08-18T07:42:50.623Z,22.90
2022-08-18T07:43:26.694Z,24.20
2022-08-18T07:44:26.801Z,24.20
2022-08-18T07:45:26.727Z,25.20
2022-08-18T07:46:27.376Z,24.60
2022-08-18T07:48:38.279Z,24.30
2022-08-18T07:49:26.545Z,24.00
2022-08-18T07:50:55.183Z,24.70
2022-08-18T07:51:26.741Z,23.50
2022-08-18T07:52:44.162Z,24.20
2022-08-18T07:54:48.262Z,23.90
2022-08-18T07:55:26.696Z,25.00
2022-08-18T07:56:26.444Z,23.90
2022-08-18T07:57:26.434Z,24.60
2022-08-18T07:58:26.831Z,25.30
2022-08-18T07:59:26.357Z,24.90
2022-08-18T08:00:55.289Z,24.10
2022-08-18T08:02:26.372Z,25.50
2022-08-18T08:03:26.523Z,22.30
2022-08-18T08:04:27.219Z,23.70
2022-08-18T08:05:26.755Z,23.50
2022-08-18T08:06:26.519Z,23.50
2022-08-18T08:07:26.598Z,23.60
2022-08-18T08:08:26.254Z,22.20
2022-08-18T08:09:26.211Z,22.00
2022-08-18T08:10:26.254Z,22.30
2022-08-18T08:11:26.197Z,23.00
2022-08-18T08:13:53.641Z,22.20
2022-08-18T08:16:26.623Z,21.00
2022-08-18T08:17:26.754Z,22.40
2022-08-18T08:18:26.066Z,21.70
2022-08-18T08:19:49.359Z,21.10
2022-08-18T08:20:26.244Z,20.70
2022-08-18T08:21:26.017Z,20.60
2022-08-18T08:22:26.020Z,20.20
2022-08-18T08:23:26.180Z,20.60
2022-08-18T08:24:26.568Z,21.70
2022-08-18T08:25:45.736Z,21.50
2022-08-18T08:27:26.325Z,21.10
2022-08-18T08:28:26.103Z,20.10
2022-08-18T08:29:26.165Z,19.80
2022-08-18T08:30:28.470Z,19.90
2022-08-18T08:31:36.827Z,20.70
2022-08-18T08:32:25.872Z,21.40
2022-08-18T08:35:49.933Z,20.30
2022-08-18T08:37:25.753Z,20.40
2022-08-18T08:38:42.948Z,19.10
2022-08-18T08:40:25.715Z,19.60
2022-08-18T08:41:25.974Z,20.70
2022-08-18T08:43:25.918Z,19.50
2022-08-18T08:45:25.676Z,20.00
2022-08-18T08:46:26.008Z,19.30
2022-08-18T08:47:25.722Z,20.50
2022-08-18T08:48:26.459Z,19.70
2022-08-18T08:50:25.542Z,19.50
2022-08-18T08:54:25.886Z,20.10
2022-08-18T08:56:25.450Z,20.30
2022-08-18T08:57:25.742Z,19.00
2022-08-18T08:58:25.423Z,19.20
2022-08-18T09:01:25.863Z,19.90
2022-08-18T09:02:46.720Z,19.20
2022-08-18T09:03:30.550Z,19.30
2022-08-18T09:05:25.366Z,21.70
2022-08-18T09:06:25.699Z,20.40
2022-08-18T09:07:25.292Z,20.50
2022-08-18T09:08:25.275Z,21.00
2022-08-18T09:09:25.251Z,20.30
2022-08-18T09:11:25.219Z,20.90
2022-08-18T09:12:25.402Z,20.40
2022-08-18T09:14:25.168Z,20.60
2022-08-18T09:15:25.381Z,20.20
2022-08-18T09:16:27.826Z,20.60
2022-08-18T09:17:28.345Z,20.10
2022-08-18T09:19:25.310Z,19.50
2022-08-18T09:20:25.075Z,20.60
2022-08-18T09:21:25.667Z,20.10
2022-08-18T09:22:25.247Z,19.70
2022-08-18T09:25:25.196Z,20.70
2022-08-18T09:26:25.589Z,20.30
2022-08-18T09:28:24.942Z,19.90
2022-08-18T09:29:25.136Z,20.30
2022-08-18T09:30:25.392Z,20.20
2022-08-18T09:31:25.710Z,20.40
2022-08-18T09:33:25.069Z,19.10
2022-08-18T09:34:25.259Z,20.10
2022-08-18T09:35:26.451Z,20.00
2022-08-18T09:36:25.783Z,19.70
2022-08-18T09:38:26.023Z,20.60
2022-08-18T09:40:44.378Z,19.40
2022-08-18T09:41:24.945Z,19.60
2022-08-18T09:42:30.107Z,18.80
2022-08-18T09:43:25.567Z,19.50
2022-08-18T09:44:26.692Z,19.70
2022-08-18T09:45:24.677Z,19.00
2022-08-18T09:46:24.865Z,18.90
2022-08-18T09:47:27.546Z,19.50
2022-08-18T09:49:26.461Z,19.10
2022-08-18T09:50:27.035Z,18.30
2022-08-18T09:51:24.789Z,19.20
2022-08-18T09:52:25.537Z,17.90
2022-08-18T09:53:24.959Z,19.50
2022-08-18T09:54:25.328Z,18.60
2022-08-18T09:55:25.029Z,18.90
2022-08-18T09:56:28.580Z,17.90
2022-08-18T09:57:25.203Z,17.50
2022-08-18T09:58:25.781Z,17.40
2022-08-18T09:59:24.867Z,17.10
2022-08-18T10:00:26.566Z,16.60
2022-08-18T10:01:24.505Z,16.50
2022-08-18T10:03:25.519Z,15.70
2022-08-18T10:04:28.933Z,15.70
2022-08-18T10:06:27.561Z,16.50
2022-08-18T10:07:24.539Z,17.30
2022-08-18T10:09:35.954Z,17.50
2022-08-18T10:10:59.355Z,16.10
2022-08-18T10:11:25.287Z,16.10
2022-08-18T10:13:24.738Z,16.40
2022-08-18T10:14:25.109Z,16.20
2022-08-18T10:15:33.184Z,16.20
2022-08-18T10:17:24.844Z,16.40
2022-08-18T10:20:26.612Z,15.40
2022-08-18T10:21:24.604Z,15.50
2022-08-18T10:23:24.059Z,15.30
2022-08-18T10:24:35.145Z,15.90
2022-08-18T10:25:24.462Z,15.70
2022-08-18T10:26:24.690Z,15.30
2022-08-18T10:27:24.299Z,15.40
2022-08-18T10:28:25.232Z,14.60
2022-08-18T10:29:23.996Z,13.70
2022-08-18T10:30:24.185Z,13.60
2022-08-18T10:31:27.301Z,13.10
2022-08-18T10:32:24.158Z,13.00
2022-08-18T10:33:23.931Z,13.10
2022-08-18T10:34:24.678Z,14.10
2022-08-18T10:35:29.131Z,13.00
2022-08-18T10:37:26.003Z,13.40
2022-08-18T10:40:26.499Z,13.20
2022-08-18T10:41:24.020Z,14.20
2022-08-18T10:42:24.161Z,13.10
2022-08-18T10:44:29.089Z,13.80
2022-08-18T10:47:24.882Z,13.40
2022-08-18T10:48:24.337Z,13.70
2022-08-18T10:49:23.686Z,13.80
2022-08-18T10:50:23.671Z,13.70
2022-08-18T10:51:23.660Z,13.10
2022-08-18T10:54:23.613Z,13.80
2022-08-18T10:55:23.598Z,13.30
2022-08-18T10:59:28.087Z,13.00
2022-08-18T11:00:23.697Z,13.20
2022-08-18T11:01:23.575Z,13.30
2022-08-18T11:02:23.576Z,12.60
2022-08-18T11:03:52.196Z,12.70
2022-08-18T11:04:33.473Z,12.30
2022-08-18T11:05:23.464Z,13.50
2022-08-18T11:06:23.500Z,12.10
2022-08-18T11:08:23.412Z,11.80
2022-08-18T11:09:23.387Z,11.90
2022-08-18T11:10:30.951Z,10.80
2022-08-18T11:11:37.050Z,11.70
2022-08-18T11:12:23.401Z,12.00
2022-08-18T11:13:23.330Z,11.50
2022-08-18T11:14:23.289Z,12.10
2022-08-18T11:15:24.064Z,11.20
2022-08-18T11:16:23.270Z,11.50
2022-08-18T11:18:23.257Z,11.80
2022-08-18T11:19:23.414Z,11.90
2022-08-18T11:21:23.183Z,10.60
2022-08-18T11:22:31.174Z,10.40
2022-08-18T11:23:23.358Z,10.40
2022-08-18T11:25:23.966Z,11.70
2022-08-18T11:30:31.084Z,11.50
2022-08-18T11:32:23.108Z,11.20
2022-08-18T11:35:23.499Z,9.70
2022-08-18T11:39:35.965Z,10.40
2022-08-18T11:41:02.409Z,10.10
2022-08-18T11:42:25.287Z,10.30
2022-08-18T11:43:23.839Z,10.30
2022-08-18T11:44:23.125Z,11.00
2022-08-18T11:46:28.299Z,10.10
2022-08-18T11:48:29.780Z,10.50
2022-08-18T11:55:24.532Z,9.10
2022-08-18T11:56:27.089Z,10.20
2022-08-18T11:57:22.649Z,10.50
2022-08-18T11:58:23.057Z,11.10
2022-08-18T11:59:22.638Z,10.50
2022-08-18T12:00:23.809Z,9.90
2022-08-18T12:01:22.587Z,10.40
2022-08-18T12:02:22.571Z,10.80
2022-08-18T12:03:22.559Z,10.20
2022-08-18T12:04:22.544Z,10.20
2022-08-18T12:05:22.532Z,10.80
2022-08-18T12:06:26.754Z,9.60
2022-08-18T12:07:22.510Z,10.30
2022-08-18T12:10:04.576Z,8.80
2022-08-18T12:10:26.542Z,9.70
2022-08-18T12:11:26.680Z,8.90
2022-08-18T12:12:22.450Z,9.40
2022-08-18T12:13:22.628Z,9.10
2022-08-18T12:14:31.154Z,11.70
2022-08-18T12:15:24.682Z,12.20
2022-08-18T12:16:22.387Z,10.50
2022-08-18T12:17:22.355Z,10.70
2022-08-18T12:18:28.415Z,10.10
2022-08-18T12:19:22.360Z,10.70
2022-08-18T12:20:22.588Z,9.90
2022-08-18T12:21:22.294Z,9.90
2022-08-18T12:22:22.296Z,8.70
2022-08-18T12:23:22.273Z,9.30
2022-08-18T12:24:26.456Z,9.70
2022-08-18T12:25:24.918Z,9.60
2022-08-18T12:26:38.878Z,9.20
2022-08-18T12:27:22.452Z,8.80
2022-08-18T12:28:22.783Z,8.90
2022-08-18T12:29:22.177Z,9.30
2022-08-18T12:30:22.167Z,7.80
2022-08-18T12:31:22.157Z,7.50
2022-08-18T12:32:48.977Z,7.10
2022-08-18T12:34:24.958Z,7.70
2022-08-18T12:35:22.641Z,7.90
2022-08-18T12:36:22.115Z,7.00
2022-08-18T12:38:22.044Z,6.10
2022-08-18T12:39:22.034Z,5.30
2022-08-18T12:40:22.148Z,5.50
2022-08-18T12:42:21.984Z,5.60
2022-08-18T12:43:21.978Z,5.70
2022-08-18T12:44:21.960Z,5.60
2022-08-18T12:45:21.954Z,5.90
2022-08-18T12:46:21.932Z,5.80
2022-08-18T12:47:21.953Z,5.50
2022-08-18T12:48:22.241Z,5.80
2022-08-18T12:49:21.886Z,5.80
2022-08-18T12:51:24.871Z,5.80
2022-08-18T12:52:21.885Z,5.80
2022-08-18T12:53:29.571Z,6.30
2022-08-18T12:54:21.817Z,6.40
2022-08-18T12:55:22.480Z,5.80
2022-08-18T12:56:21.832Z,5.50
2022-08-18T12:57:27.685Z,5.90
2022-08-18T12:58:21.814Z,6.10
2022-08-18T12:59:21.782Z,6.50
2022-08-18T13:01:23.614Z,5.80
2022-08-18T13:02:21.694Z,5.40
2022-08-18T13:03:21.716Z,6.90
2022-08-18T13:04:21.674Z,6.70
2022-08-18T13:05:26.291Z,6.30
2022-08-18T13:06:21.636Z,6.30
2022-08-18T13:07:22.343Z,6.60
2022-08-18T13:08:30.284Z,6.60
2022-08-18T13:09:35.088Z,6.10
2022-08-18T13:10:45.956Z,6.60
2022-08-18T13:11:24.913Z,7.00
2022-08-18T13:12:21.560Z,7.50
2022-08-18T13:13:21.537Z,7.50
2022-08-18T13:14:21.552Z,7.30
2022-08-18T13:15:21.506Z,6.60
2022-08-18T13:16:39.102Z,6.30
2022-08-18T13:17:32.803Z,6.80
2022-08-18T13:18:21.464Z,6.60
2022-08-18T13:19:21.465Z,6.40
2022-08-18T13:20:21.434Z,6.20
2022-08-18T13:21:21.421Z,6.40
2022-08-18T13:22:21.403Z,6.60
2022-08-18T13:23:24.894Z,7.70
2022-08-18T13:24:22.210Z,7.30
2022-08-18T13:25:32.974Z,7.10
2022-08-18T13:26:21.452Z,7.00
2022-08-18T13:27:22.957Z,6.60
2022-08-18T13:28:21.362Z,7.00
2022-08-18T13:29:21.309Z,7.00
2022-08-18T13:30:30.349Z,6.60
2022-08-18T13:31:21.282Z,7.00
2022-08-18T13:32:21.677Z,7.10
2022-08-18T13:33:35.088Z,7.10
2022-08-18T13:34:21.266Z,6.40
2022-08-18T13:35:21.285Z,6.80
2022-08-18T13:36:22.360Z,6.90
2022-08-18T13:37:21.260Z,7.20
2022-08-18T13:38:22.068Z,6.70
2022-08-18T13:39:21.185Z,6.70
2022-08-18T13:40:21.308Z,6.90
2022-08-18T13:41:21.201Z,7.00
2022-08-18T13:42:21.707Z,6.80
2022-08-18T13:43:23.255Z,6.80
2022-08-18T13:44:21.101Z,7.00
2022-08-18T13:45:24.869Z,6.70
2022-08-18T13:46:24.088Z,6.80
2022-08-18T13:47:21.090Z,6.80
2022-08-18T13:48:21.055Z,7.00
2022-08-18T13:49:24.032Z,7.90
2022-08-18T13:50:21.053Z,7.70
2022-08-18T13:51:20.990Z,7.30
2022-08-18T13:52:33.495Z,6.90
2022-08-18T13:53:21.075Z,7.10
2022-08-18T13:54:30.950Z,7.10
2022-08-18T13:55:21.018Z,6.90
2022-08-18T13:56:21.037Z,6.90
2022-08-18T13:57:20.964Z,6.60
2022-08-18T13:58:21.367Z,7.20
2022-08-18T13:59:20.955Z,6.80
2022-08-18T14:01:44.207Z,6.90
2022-08-18T14:02:26.995Z,7.40
2022-08-18T14:03:42.759Z,7.00
2022-08-18T14:04:21.125Z,6.70
2022-08-18T14:05:20.829Z,7.00
2022-08-18T14:06:22.619Z,6.80
2022-08-18T14:07:24.680Z,6.10
2022-08-18T14:08:20.798Z,6.30
2022-08-18T14:09:36.720Z,7.00
2022-08-18T14:10:20.759Z,6.60
2022-08-18T14:11:20.705Z,7.00
2022-08-18T14:12:23.131Z,6.90
2022-08-18T14:13:24.343Z,6.60
2022-08-18T14:14:20.711Z,6.50
2022-08-18T14:15:20.683Z,6.80
2022-08-18T14:17:22.496Z,6.80
2022-08-18T14:18:20.601Z,6.30
2022-08-18T14:19:22.820Z,7.30
2022-08-18T14:20:22.316Z,7.10
2022-08-18T14:21:22.977Z,6.60
2022-08-18T14:22:20.877Z,6.50
2022-08-18T14:23:23.454Z,7.10
2022-08-18T14:24:20.544Z,6.90
2022-08-18T14:25:22.247Z,6.20
2022-08-18T14:26:20.519Z,6.30
2022-08-18T14:27:20.497Z,6.70
2022-08-18T14:28:24.484Z,6.80
2022-08-18T14:29:46.969Z,7.50
2022-08-18T14:30:20.661Z,7.30
2022-08-18T14:31:20.715Z,7.10
2022-08-18T14:32:28.423Z,7.20
2022-08-18T14:34:21.690Z,8.90